sensor_id;sensor_type;location;lat;lon;timestamp;pressure;altitude;pressure_sealevel;temperature;humidity
78671;BME280;68277;52.724;6.516;2023-05-24T00:02:19;102400.16;;;8.42;72.43
78671;BME280;68277;52.724;6.516;2023-05-24T00:04:44;102383.34;;;8.31;71.58
78671;BME280;68277;52.724;6.516;2023-05-24T00:07:10;102402.00;;;8.49;72.10
78671;BME280;68277;52.724;6.516;2023-05-24T00:09:35;102408.16;;;8.51;73.33
78671;BME280;68277;52.724;6.516;2023-05-24T00:12:01;102422.41;;;8.62;70.53
78671;BME280;68277;52.724;6.516;2023-05-24T00:14:26;102435.63;;;8.68;71.55
78671;BME280;68277;52.724;6.516;2023-05-24T00:16:52;102427.72;;;8.68;70.52
78671;BME280;68277;52.724;6.516;2023-05-24T00:19:18;102395.81;;;8.45;75.11
78671;BME280;68277;52.724;6.516;2023-05-24T00:21:49;102420.66;;;8.64;71.72
78671;BME280;68277;52.724;6.516;2023-05-24T00:24:15;102432.06;;;8.61;75.31
78671;BME280;68277;52.724;6.516;2023-05-24T00:26:42;102417.91;;;8.55;72.25
78671;BME280;68277;52.724;6.516;2023-05-24T00:29:09;102414.34;;;8.50;72.12
78671;BME280;68277;52.724;6.516;2023-05-24T00:31:37;102402.88;;;8.48;72.13
78671;BME280;68277;52.724;6.516;2023-05-24T00:34:03;102420.59;;;8.59;74.45
78671;BME280;68277;52.724;6.516;2023-05-24T00:36:35;102403.78;;;8.53;74.45
78671;BME280;68277;52.724;6.516;2023-05-24T00:39:02;102392.28;;;8.45;72.02
78671;BME280;68277;52.724;6.516;2023-05-24T00:41:29;102389.69;;;8.48;74.42
78671;BME280;68277;52.724;6.516;2023-05-24T00:43:54;102409.16;;;8.59;74.08
78671;BME280;68277;52.724;6.516;2023-05-24T00:46:21;102386.13;;;8.44;72.15
78671;BME280;68277;52.724;6.516;2023-05-24T00:48:52;102382.59;;;8.44;72.06
78671;BME280;68277;52.724;6.516;2023-05-24T00:51:18;102383.38;;;8.37;72.14
78671;BME280;68277;52.724;6.516;2023-05-24T00:53:47;102412.59;;;8.52;71.81
78671;BME280;68277;52.724;6.516;2023-05-24T00:56:14;102383.34;;;8.32;71.60
78671;BME280;68277;52.724;6.516;2023-05-24T00:58:40;102421.41;;;8.52;74.45
78671;BME280;68277;52.724;6.516;2023-05-24T01:01:05;102379.00;;;8.36;71.93
78671;BME280;68277;52.724;6.516;2023-05-24T01:03:33;102395.72;;;8.39;74.46
78671;BME280;68277;52.724;6.516;2023-05-24T01:06:05;102423.19;;;8.55;73.82
78671;BME280;68277;52.724;6.516;2023-05-24T01:11:10;102410.84;;;8.52;75.93
78671;BME280;68277;52.724;6.516;2023-05-24T01:16:46;102395.06;;;8.57;79.10
78671;BME280;68277;52.724;6.516;2023-05-24T01:19:39;102388.84;;;8.52;73.97
78671;BME280;68277;52.724;6.516;2023-05-24T01:25:11;102409.16;;;8.60;76.02
78671;BME280;68277;52.724;6.516;2023-05-24T01:27:41;102402.09;;;8.55;75.16
78671;BME280;68277;52.724;6.516;2023-05-24T01:30:07;102403.84;;;8.57;80.65
78671;BME280;68277;52.724;6.516;2023-05-24T01:32:34;102379.94;;;8.44;80.12
78671;BME280;68277;52.724;6.516;2023-05-24T01:34:59;102387.00;;;8.45;76.05
78671;BME280;68277;52.724;6.516;2023-05-24T01:37:25;102405.53;;;8.51;75.03
78671;BME280;68277;52.724;6.516;2023-05-24T01:39:51;102388.81;;;8.47;76.83
78671;BME280;68277;52.724;6.516;2023-05-24T01:42:24;102396.66;;;8.43;76.03
78671;BME280;68277;52.724;6.516;2023-05-24T01:50:31;102388.66;;;8.35;81.22
78671;BME280;68277;52.724;6.516;2023-05-24T01:53:03;102388.63;;;8.31;80.63
78671;BME280;68277;52.724;6.516;2023-05-24T01:55:30;102391.25;;;8.31;80.86
78671;BME280;68277;52.724;6.516;2023-05-24T01:58:00;102375.28;;;8.21;78.53
78671;BME280;68277;52.724;6.516;2023-05-24T02:00:28;102357.59;;;8.13;76.49
78671;BME280;68277;52.724;6.516;2023-05-24T02:02:54;102377.94;;;8.23;76.65
78671;BME280;68277;52.724;6.516;2023-05-24T02:05:20;102370.91;;;8.23;78.62
78671;BME280;68277;52.724;6.516;2023-05-24T02:07:46;102347.00;;;8.08;77.62
78671;BME280;68277;52.724;6.516;2023-05-24T02:10:11;102350.53;;;8.10;77.09
78671;BME280;68277;52.724;6.516;2023-05-24T02:12:37;102324.03;;;7.98;76.73
78671;BME280;68277;52.724;6.516;2023-05-24T02:15:03;102350.53;;;8.09;76.98
78671;BME280;68277;52.724;6.516;2023-05-24T02:17:29;102352.31;;;8.11;77.77
78671;BME280;68277;52.724;6.516;2023-05-24T02:20:00;102351.47;;;8.14;77.90
78671;BME280;68277;52.724;6.516;2023-05-24T02:22:26;102361.13;;;8.15;82.06
78671;BME280;68277;52.724;6.516;2023-05-24T02:24:51;102347.88;;;8.07;80.82
78671;BME280;68277;52.724;6.516;2023-05-24T02:27:17;102375.19;;;8.15;77.11
78671;BME280;68277;52.724;6.516;2023-05-24T02:29:43;102345.94;;;7.93;77.53
78671;BME280;68277;52.724;6.516;2023-05-24T02:32:10;102377.78;;;8.11;82.13
78671;BME280;68277;52.724;6.516;2023-05-24T02:34:35;102373.34;;;8.08;79.74
78671;BME280;68277;52.724;6.516;2023-05-24T02:37:01;102352.03;;;7.89;80.69
78671;BME280;68277;52.724;6.516;2023-05-24T02:39:26;102374.19;;;8.06;77.11
78671;BME280;68277;52.724;6.516;2023-05-24T02:41:52;102358.22;;;7.92;75.79
78671;BME280;68277;52.724;6.516;2023-05-24T02:44:17;102354.69;;;7.89;76.59
78671;BME280;68277;52.724;6.516;2023-05-24T02:46:43;102338.75;;;7.81;79.67
78671;BME280;68277;52.724;6.516;2023-05-24T02:49:08;102352.88;;;7.86;78.18
78671;BME280;68277;52.724;6.516;2023-05-24T02:51:34;102365.28;;;7.96;79.63
78671;BME280;68277;52.724;6.516;2023-05-24T02:54:02;102351.97;;;7.84;77.45
78671;BME280;68277;52.724;6.516;2023-05-24T02:56:28;102336.06;;;7.77;79.42
78671;BME280;68277;52.724;6.516;2023-05-24T02:58:54;102370.50;;;7.90;77.60
78671;BME280;68277;52.724;6.516;2023-05-24T03:01:20;102373.19;;;7.93;83.83
78671;BME280;68277;52.724;6.516;2023-05-24T03:03:48;102344.81;;;7.74;81.27
78671;BME280;68277;52.724;6.516;2023-05-24T03:06:13;102338.66;;;7.72;78.63
78671;BME280;68277;52.724;6.516;2023-05-24T03:08:40;102357.22;;;7.81;80.84
78671;BME280;68277;52.724;6.516;2023-05-24T03:11:05;102340.34;;;7.70;77.09
78671;BME280;68277;52.724;6.516;2023-05-24T03:13:34;102364.28;;;7.84;77.72
78671;BME280;68277;52.724;6.516;2023-05-24T03:16:00;102357.16;;;7.78;83.22
78671;BME280;68277;52.724;6.516;2023-05-24T03:18:25;102346.50;;;7.71;81.36
78671;BME280;68277;52.724;6.516;2023-05-24T03:20:52;102333.22;;;7.62;84.30
78671;BME280;68277;52.724;6.516;2023-05-24T03:23:18;102366.84;;;7.81;81.79
78671;BME280;68277;52.724;6.516;2023-05-24T03:25:43;102358.91;;;7.78;83.83
78671;BME280;68277;52.724;6.516;2023-05-24T03:28:09;102335.94;;;7.68;80.29
78671;BME280;68277;52.724;6.516;2023-05-24T03:30:35;102373.06;;;7.86;80.49
78671;BME280;68277;52.724;6.516;2023-05-24T03:33:00;102367.81;;;7.86;81.69
78671;BME280;68277;52.724;6.516;2023-05-24T03:35:26;102343.03;;;7.73;83.46
78671;BME280;68277;52.724;6.516;2023-05-24T03:37:52;102346.56;;;7.74;81.14
78671;BME280;68277;52.724;6.516;2023-05-24T03:40:18;102363.44;;;7.86;80.10
78671;BME280;68277;52.724;6.516;2023-05-24T03:43:06;102360.75;;;7.85;80.98
78671;BME280;68277;52.724;6.516;2023-05-24T03:45:46;102367.81;;;7.86;81.40
78671;BME280;68277;52.724;6.516;2023-05-24T03:48:11;102346.59;;;7.77;81.43
78671;BME280;68277;52.724;6.516;2023-05-24T03:50:37;102343.91;;;7.72;79.72
78671;BME280;68277;52.724;6.516;2023-05-24T03:53:02;102349.19;;;7.74;79.13
78671;BME280;68277;52.724;6.516;2023-05-24T03:55:28;102334.16;;;7.65;78.37
78671;BME280;68277;52.724;6.516;2023-05-24T03:57:54;102343.03;;;7.73;79.50
78671;BME280;68277;52.724;6.516;2023-05-24T04:00:19;102343.88;;;7.71;79.32
78671;BME280;68277;52.724;6.516;2023-05-24T04:02:46;102352.78;;;7.80;80.21
78671;BME280;68277;52.724;6.516;2023-05-24T04:05:12;102349.19;;;7.75;81.88
78671;BME280;68277;52.724;6.516;2023-05-24T04:07:39;102380.22;;;7.94;80.18
78671;BME280;68277;52.724;6.516;2023-05-24T04:10:06;102368.66;;;7.85;78.70
78671;BME280;68277;52.724;6.516;2023-05-24T04:12:32;102351.88;;;7.78;78.47
78671;BME280;68277;52.724;6.516;2023-05-24T04:14:58;102371.41;;;7.91;82.56
78671;BME280;68277;52.724;6.516;2023-05-24T04:17:25;102377.66;;;8.00;82.00
78671;BME280;68277;52.724;6.516;2023-05-24T04:19:52;102368.81;;;7.97;80.76
78671;BME280;68277;52.724;6.516;2023-05-24T04:22:18;102352.94;;;7.91;82.85
78671;BME280;68277;52.724;6.516;2023-05-24T04:24:44;102358.13;;;7.85;80.58
78671;BME280;68277;52.724;6.516;2023-05-24T04:27:10;102377.69;;;8.03;80.31
78671;BME280;68277;52.724;6.516;2023-05-24T04:29:36;102378.56;;;8.02;84.03
78671;BME280;68277;52.724;6.516;2023-05-24T04:32:01;102346.81;;;7.93;80.79
78671;BME280;68277;52.724;6.516;2023-05-24T04:34:30;102353.06;;;8.00;79.55
78671;BME280;68277;52.724;6.516;2023-05-24T04:36:59;102356.63;;;8.05;79.87
78671;BME280;68277;52.724;6.516;2023-05-24T04:39:24;102345.19;;;8.04;83.49
78671;BME280;68277;52.724;6.516;2023-05-24T04:41:51;102360.22;;;8.10;80.71
78671;BME280;68277;52.724;6.516;2023-05-24T04:44:19;102346.03;;;8.03;80.65
78671;BME280;68277;52.724;6.516;2023-05-24T04:46:44;102347.88;;;8.07;80.22
78671;BME280;68277;52.724;6.516;2023-05-24T04:49:10;102350.50;;;8.07;78.66
78671;BME280;68277;52.724;6.516;2023-05-24T04:51:35;102347.03;;;8.10;84.59
78671;BME280;68277;52.724;6.516;2023-05-24T04:54:06;102377.16;;;8.30;81.34
78671;BME280;68277;52.724;6.516;2023-05-24T04:56:34;102348.91;;;8.23;77.70
78671;BME280;68277;52.724;6.516;2023-05-24T04:59:00;102375.56;;;8.44;82.81
78671;BME280;68277;52.724;6.516;2023-05-24T05:01:26;102342.94;;;8.36;81.53
78671;BME280;68277;52.724;6.516;2023-05-24T05:03:52;102341.22;;;8.41;81.06
78671;BME280;68277;52.724;6.516;2023-05-24T05:06:17;102355.47;;;8.57;79.89
78671;BME280;68277;52.724;6.516;2023-05-24T05:08:43;102362.63;;;8.70;81.95
78671;BME280;68277;52.724;6.516;2023-05-24T05:11:08;102373.31;;;8.82;80.71
78671;BME280;68277;52.724;6.516;2023-05-24T05:13:34;102379.56;;;8.90;80.80
78671;BME280;68277;52.724;6.516;2023-05-24T05:16:00;102369.81;;;8.84;79.54
78671;BME280;68277;52.724;6.516;2023-05-24T05:18:26;102379.56;;;8.93;80.57
78671;BME280;68277;52.724;6.516;2023-05-24T05:20:51;102373.50;;;9.02;80.54
78671;BME280;68277;52.724;6.516;2023-05-24T05:23:16;102366.47;;;9.05;78.97
78671;BME280;68277;52.724;6.516;2023-05-24T05:25:42;102358.59;;;9.08;79.41
78671;BME280;68277;52.724;6.516;2023-05-24T05:28:07;102363.03;;;9.15;79.38
78671;BME280;68277;52.724;6.516;2023-05-24T05:30:35;102385.16;;;9.28;77.68
78671;BME280;68277;52.724;6.516;2023-05-24T05:33:00;102382.50;;;9.28;77.19
78671;BME280;68277;52.724;6.516;2023-05-24T05:35:26;102380.72;;;9.28;77.47
78671;BME280;68277;52.724;6.516;2023-05-24T05:37:51;102381.59;;;9.26;78.62
78671;BME280;68277;52.724;6.516;2023-05-24T05:40:17;102377.16;;;9.23;81.22
78671;BME280;68277;52.724;6.516;2023-05-24T05:42:42;102403.72;;;9.40;78.19
78671;BME280;68277;52.724;6.516;2023-05-24T05:45:08;102379.91;;;9.35;79.61
78671;BME280;68277;52.724;6.516;2023-05-24T05:47:34;102375.56;;;9.42;78.59
78671;BME280;68277;52.724;6.516;2023-05-24T05:49:59;102394.19;;;9.61;78.26
78671;BME280;68277;52.724;6.516;2023-05-24T05:52:25;102367.75;;;9.61;77.95
78671;BME280;68277;52.724;6.516;2023-05-24T05:54:50;102399.72;;;10.01;78.72
78671;BME280;68277;52.724;6.516;2023-05-24T05:57:16;102383.91;;;10.11;78.23
78671;BME280;68277;52.724;6.516;2023-05-24T05:59:43;102371.69;;;10.51;77.09
78671;BME280;68277;52.724;6.516;2023-05-24T06:02:09;102402.66;;;11.08;75.60
78671;BME280;68277;52.724;6.516;2023-05-24T06:04:37;102392.03;;;11.26;75.03
78671;BME280;68277;52.724;6.516;2023-05-24T06:07:03;102399.13;;;11.44;73.77
78671;BME280;68277;52.724;6.516;2023-05-24T06:09:28;102373.50;;;11.25;73.93
78671;BME280;68277;52.724;6.516;2023-05-24T06:11:54;102346.13;;;11.03;74.59
78671;BME280;68277;52.724;6.516;2023-05-24T06:14:19;102363.78;;;11.10;75.88
78671;BME280;68277;52.724;6.516;2023-05-24T06:16:49;102392.06;;;11.28;75.04
78671;BME280;68277;52.724;6.516;2023-05-24T06:19:16;102397.34;;;11.25;75.31
78671;BME280;68277;52.724;6.516;2023-05-24T06:21:47;102387.63;;;11.18;75.79
78671;BME280;68277;52.724;6.516;2023-05-24T06:24:13;102380.59;;;11.14;74.79
78671;BME280;68277;52.724;6.516;2023-05-24T06:26:39;102403.53;;;11.30;75.22
78671;BME280;68277;52.724;6.516;2023-05-24T06:29:06;102384.09;;;11.25;74.61
78671;BME280;68277;52.724;6.516;2023-05-24T06:31:32;102395.59;;;11.33;74.62
78671;BME280;68277;52.724;6.516;2023-05-24T06:33:59;102378.81;;;11.37;74.68
78671;BME280;68277;52.724;6.516;2023-05-24T06:36:26;102381.41;;;11.59;73.65
78671;BME280;68277;52.724;6.516;2023-05-24T06:38:52;102379.63;;;11.80;73.09
78671;BME280;68277;52.724;6.516;2023-05-24T06:41:17;102384.88;;;11.96;72.98
78671;BME280;68277;52.724;6.516;2023-05-24T06:43:42;102402.47;;;12.15;72.52
78671;BME280;68277;52.724;6.516;2023-05-24T06:46:08;102406.88;;;12.25;72.28
78671;BME280;68277;52.724;6.516;2023-05-24T06:48:34;102381.25;;;12.17;71.50
78671;BME280;68277;52.724;6.516;2023-05-24T06:50:59;102370.59;;;12.29;71.13
78671;BME280;68277;52.724;6.516;2023-05-24T06:53:25;102395.16;;;12.63;70.83
78671;BME280;68277;52.724;6.516;2023-05-24T06:55:51;102403.97;;;12.71;70.71
78671;BME280;68277;52.724;6.516;2023-05-24T06:58:17;102396.94;;;12.58;71.32
78671;BME280;68277;52.724;6.516;2023-05-24T07:00:42;102400.53;;;12.51;71.34
78671;BME280;68277;52.724;6.516;2023-05-24T07:03:11;102389.94;;;12.48;71.03
78671;BME280;68277;52.724;6.516;2023-05-24T07:05:36;102412.03;;;12.57;70.99
78671;BME280;68277;52.724;6.516;2023-05-24T07:08:01;102408.50;;;12.51;70.86
78671;BME280;68277;52.724;6.516;2023-05-24T07:10:28;102402.81;;;13.13;69.52
78671;BME280;68277;52.724;6.516;2023-05-24T07:12:54;102406.09;;;13.43;68.37
78671;BME280;68277;52.724;6.516;2023-05-24T07:15:20;102382.31;;;13.28;66.88
78671;BME280;68277;52.724;6.516;2023-05-24T07:17:45;102391.25;;;13.17;68.19
78671;BME280;68277;52.724;6.516;2023-05-24T07:20:12;102408.06;;;13.20;68.41
78671;BME280;68277;52.724;6.516;2023-05-24T07:22:38;102407.06;;;13.35;66.82
78671;BME280;68277;52.724;6.516;2023-05-24T07:25:04;102404.19;;;13.54;67.91
78671;BME280;68277;52.724;6.516;2023-05-24T07:27:30;102409.22;;;13.83;66.03
78671;BME280;68277;52.724;6.516;2023-05-24T07:29:55;102394.78;;;14.04;65.17
78671;BME280;68277;52.724;6.516;2023-05-24T07:32:21;102397.38;;;14.13;65.58
78671;BME280;68277;52.724;6.516;2023-05-24T07:34:47;102420.41;;;14.14;65.64
78671;BME280;68277;52.724;6.516;2023-05-24T07:37:12;102407.97;;;14.16;65.65
78671;BME280;68277;52.724;6.516;2023-05-24T07:39:38;102402.50;;;14.26;65.42
78671;BME280;68277;52.724;6.516;2023-05-24T07:42:06;102416.94;;;14.07;65.42
78671;BME280;68277;52.724;6.516;2023-05-24T07:44:32;102405.88;;;13.64;64.62
78671;BME280;68277;52.724;6.516;2023-05-24T07:46:57;102424.69;;;13.45;65.68
78671;BME280;68277;52.724;6.516;2023-05-24T07:49:23;102414.22;;;13.27;65.49
78671;BME280;68277;52.724;6.516;2023-05-24T07:51:48;102416.94;;;13.19;66.50
78671;BME280;68277;52.724;6.516;2023-05-24T07:54:14;102395.78;;;13.01;64.99
78671;BME280;68277;52.724;6.516;2023-05-24T07:56:42;102415.13;;;13.26;66.13
78671;BME280;68277;52.724;6.516;2023-05-24T07:59:08;102411.44;;;13.40;65.28
78671;BME280;68277;52.724;6.516;2023-05-24T08:01:34;102397.00;;;13.64;65.40
78671;BME280;68277;52.724;6.516;2023-05-24T08:04:00;102404.13;;;13.62;64.45
78671;BME280;68277;52.724;6.516;2023-05-24T08:06:28;102419.22;;;13.60;65.10
78671;BME280;68277;52.724;6.516;2023-05-24T08:08:54;102393.72;;;13.39;65.32
78671;BME280;68277;52.724;6.516;2023-05-24T08:11:20;102427.84;;;13.86;64.90
78671;BME280;68277;52.724;6.516;2023-05-24T08:13:46;102392.97;;;14.76;62.09
78671;BME280;68277;52.724;6.516;2023-05-24T08:16:11;102402.34;;;15.56;60.38
78671;BME280;68277;52.724;6.516;2023-05-24T08:18:37;102418.38;;;15.53;60.19
78671;BME280;68277;52.724;6.516;2023-05-24T08:21:04;102389.75;;;15.11;61.06
78671;BME280;68277;52.724;6.516;2023-05-24T08:23:29;102398.59;;;15.13;60.66
78671;BME280;68277;52.724;6.516;2023-05-24T08:25:58;102387.56;;;15.34;56.09
78671;BME280;68277;52.724;6.516;2023-05-24T08:28:25;102410.56;;;15.41;59.43
78671;BME280;68277;52.724;6.516;2023-05-24T08:30:51;102385.19;;;15.19;58.76
78671;BME280;68277;52.724;6.516;2023-05-24T08:33:16;102421.41;;;15.32;59.58
78671;BME280;68277;52.724;6.516;2023-05-24T08:35:42;102376.06;;;14.78;58.09
78671;BME280;68277;52.724;6.516;2023-05-24T08:38:07;102419.38;;;14.91;59.72
78671;BME280;68277;52.724;6.516;2023-05-24T08:40:33;102413.34;;;15.35;59.19
78671;BME280;68277;52.724;6.516;2023-05-24T08:43:00;102406.28;;;15.32;58.52
78671;BME280;68277;52.724;6.516;2023-05-24T08:45:29;102422.53;;;15.17;58.79
78671;BME280;68277;52.724;6.516;2023-05-24T08:47:56;102394.56;;;14.87;57.81
78671;BME280;68277;52.724;6.516;2023-05-24T08:50:21;102404.44;;;14.81;57.62
78671;BME280;68277;52.724;6.516;2023-05-24T08:52:47;102414.28;;;14.76;59.33
78671;BME280;68277;52.724;6.516;2023-05-24T08:55:14;102394.59;;;14.86;56.51
78671;BME280;68277;52.724;6.516;2023-05-24T08:57:40;102418.34;;;15.02;53.86
78671;BME280;68277;52.724;6.516;2023-05-24T09:00:07;102417.72;;;15.39;57.15
78671;BME280;68277;52.724;6.516;2023-05-24T09:02:37;102399.75;;;15.97;54.32
78671;BME280;68277;52.724;6.516;2023-05-24T09:05:03;102403.25;;;16.01;53.96
78671;BME280;68277;52.724;6.516;2023-05-24T09:07:30;102393.16;;;16.58;53.09
78671;BME280;68277;52.724;6.516;2023-05-24T09:10:03;102407.56;;;16.08;54.46
78671;BME280;68277;52.724;6.516;2023-05-24T09:12:30;102427.91;;;15.67;55.50
78671;BME280;68277;52.724;6.516;2023-05-24T09:15:01;102416.31;;;15.18;53.29
78671;BME280;68277;52.724;6.516;2023-05-24T09:17:28;102396.19;;;14.96;55.17
78671;BME280;68277;52.724;6.516;2023-05-24T09:19:56;102423.59;;;15.05;55.22
78671;BME280;68277;52.724;6.516;2023-05-24T09:22:24;102432.41;;;15.11;55.99
78671;BME280;68277;52.724;6.516;2023-05-24T09:24:50;102421.75;;;15.11;55.57
78671;BME280;68277;52.724;6.516;2023-05-24T09:27:20;102422.59;;;15.13;55.28
78671;BME280;68277;52.724;6.516;2023-05-24T09:29:49;102426.69;;;15.33;55.32
78671;BME280;68277;52.724;6.516;2023-05-24T09:32:17;102411.66;;;15.29;53.86
78671;BME280;68277;52.724;6.516;2023-05-24T09:34:43;102435.66;;;15.29;53.33
78671;BME280;68277;52.724;6.516;2023-05-24T09:37:14;102441.13;;;15.22;53.42
78671;BME280;68277;52.724;6.516;2023-05-24T09:39:44;102419.13;;;15.07;53.69
78671;BME280;68277;52.724;6.516;2023-05-24T09:42:18;102436.66;;;15.22;55.52
78671;BME280;68277;52.724;6.516;2023-05-24T09:47:43;102435.94;;;15.14;54.12
78671;BME280;68277;52.724;6.516;2023-05-24T09:50:13;102443.84;;;15.17;53.86
78671;BME280;68277;52.724;6.516;2023-05-24T09:52:39;102442.13;;;15.15;55.16
78671;BME280;68277;52.724;6.516;2023-05-24T09:55:18;102415.78;;;14.93;52.91
78671;BME280;68277;52.724;6.516;2023-05-24T09:57:49;102435.25;;;15.00;53.42
78671;BME280;68277;52.724;6.516;2023-05-24T10:00:20;102426.38;;;14.99;54.03
78671;BME280;68277;52.724;6.516;2023-05-24T10:03:03;102427.94;;;15.14;52.58
78671;BME280;68277;52.724;6.516;2023-05-24T10:05:29;102409.19;;;15.19;53.54
78671;BME280;68277;52.724;6.516;2023-05-24T10:07:56;102392.19;;;15.24;53.94
78671;BME280;68277;52.724;6.516;2023-05-24T10:10:22;102393.91;;;15.27;54.27
78671;BME280;68277;52.724;6.516;2023-05-24T10:12:48;102402.50;;;15.45;54.22
78671;BME280;68277;52.724;6.516;2023-05-24T10:15:14;102396.13;;;15.55;53.27
78671;BME280;68277;52.724;6.516;2023-05-24T10:17:40;102409.03;;;16.22;49.96
78671;BME280;68277;52.724;6.516;2023-05-24T10:20:05;102410.13;;;16.12;50.89
78671;BME280;68277;52.724;6.516;2023-05-24T10:22:35;102396.38;;;15.88;52.62
78671;BME280;68277;52.724;6.516;2023-05-24T10:25:02;102397.31;;;15.85;53.05
78671;BME280;68277;52.724;6.516;2023-05-24T10:27:30;102410.22;;;16.51;52.90
78671;BME280;68277;52.724;6.516;2023-05-24T10:32:36;102379.03;;;16.50;52.69
78671;BME280;68277;52.724;6.516;2023-05-24T10:35:04;102398.09;;;16.34;53.23
78671;BME280;68277;52.724;6.516;2023-05-24T10:37:33;102400.47;;;16.48;52.72
78671;BME280;68277;52.724;6.516;2023-05-24T10:39:59;102391.63;;;16.84;51.46
78671;BME280;68277;52.724;6.516;2023-05-24T10:42:25;102412.31;;;17.50;49.59
78671;BME280;68277;52.724;6.516;2023-05-24T10:44:51;102403.75;;;17.69;49.42
78671;BME280;68277;52.724;6.516;2023-05-24T10:47:19;102401.91;;;17.38;50.48
78671;BME280;68277;52.724;6.516;2023-05-24T10:49:53;102417.28;;;16.93;49.60
78671;BME280;68277;52.724;6.516;2023-05-24T10:52:32;102408.44;;;16.51;49.13
78671;BME280;68277;52.724;6.516;2023-05-24T10:55:03;102410.00;;;16.18;50.44
78671;BME280;68277;52.724;6.516;2023-05-24T10:57:29;102392.63;;;16.40;51.52
78671;BME280;68277;52.724;6.516;2023-05-24T11:02:48;102406.19;;;17.78;50.08
78671;BME280;68277;52.724;6.516;2023-05-24T11:05:14;102410.38;;;17.56;51.73
78671;BME280;68277;52.724;6.516;2023-05-24T11:07:40;102388.28;;;16.75;51.84
78671;BME280;68277;52.724;6.516;2023-05-24T11:10:29;102407.56;;;16.49;50.90
78671;BME280;68277;52.724;6.516;2023-05-24T11:13:01;102409.84;;;17.05;51.95
78671;BME280;68277;52.724;6.516;2023-05-24T11:15:28;102392.09;;;17.72;50.05
78671;BME280;68277;52.724;6.516;2023-05-24T11:20:38;102421.28;;;17.12;49.35
78671;BME280;68277;52.724;6.516;2023-05-24T11:23:06;102417.78;;;16.72;50.90
78671;BME280;68277;52.724;6.516;2023-05-24T11:25:34;102419.91;;;16.58;51.52
78671;BME280;68277;52.724;6.516;2023-05-24T11:28:02;102412.22;;;16.39;51.95
78671;BME280;68277;52.724;6.516;2023-05-24T11:30:29;102403.34;;;16.37;50.44
78671;BME280;68277;52.724;6.516;2023-05-24T11:32:57;102415.22;;;16.66;51.03
78671;BME280;68277;52.724;6.516;2023-05-24T11:35:25;102417.72;;;17.12;50.27
78671;BME280;68277;52.724;6.516;2023-05-24T11:37:58;102400.94;;;17.74;49.23
78671;BME280;68277;52.724;6.516;2023-05-24T11:40:24;102407.50;;;18.56;47.73
78671;BME280;68277;52.724;6.516;2023-05-24T11:42:51;102405.84;;;18.52;47.18
78671;BME280;68277;52.724;6.516;2023-05-24T11:45:18;102386.47;;;17.81;45.70
78671;BME280;68277;52.724;6.516;2023-05-24T11:47:43;102409.06;;;17.37;48.83
78671;BME280;68277;52.724;6.516;2023-05-24T11:50:09;102418.94;;;16.98;46.89
78671;BME280;68277;52.724;6.516;2023-05-24T11:52:39;102414.22;;;16.71;49.04
78671;BME280;68277;52.724;6.516;2023-05-24T11:55:05;102427.44;;;16.77;49.30
78671;BME280;68277;52.724;6.516;2023-05-24T11:57:41;102431.16;;;16.70;48.73
78671;BME280;68277;52.724;6.516;2023-05-24T12:00:10;102433.16;;;16.61;47.20
78671;BME280;68277;52.724;6.516;2023-05-24T12:02:41;102438.66;;;16.55;48.11
78671;BME280;68277;52.724;6.516;2023-05-24T12:05:07;102444.00;;;16.55;48.97
78671;BME280;68277;52.724;6.516;2023-05-24T12:07:38;102418.25;;;16.49;48.20
78671;BME280;68277;52.724;6.516;2023-05-24T12:10:05;102428.00;;;16.53;49.07
78671;BME280;68277;52.724;6.516;2023-05-24T12:12:32;102421.78;;;16.51;49.20
78671;BME280;68277;52.724;6.516;2023-05-24T12:14:58;102425.09;;;16.64;49.27
78671;BME280;68277;52.724;6.516;2023-05-24T12:17:23;102433.56;;;16.82;49.20
78671;BME280;68277;52.724;6.516;2023-05-24T12:19:49;102411.38;;;16.79;48.94
78671;BME280;68277;52.724;6.516;2023-05-24T12:22:16;102411.59;;;16.70;48.82
78671;BME280;68277;52.724;6.516;2023-05-24T12:24:41;102435.69;;;16.68;49.05
78671;BME280;68277;52.724;6.516;2023-05-24T12:27:09;102436.72;;;16.63;49.66
78671;BME280;68277;52.724;6.516;2023-05-24T12:29:39;102423.69;;;16.44;49.81
78671;BME280;68277;52.724;6.516;2023-05-24T12:32:07;102431.06;;;16.33;50.41
78671;BME280;68277;52.724;6.516;2023-05-24T12:34:36;102448.25;;;16.20;51.01
78671;BME280;68277;52.724;6.516;2023-05-24T12:37:02;102451.09;;;16.13;51.13
78671;BME280;68277;52.724;6.516;2023-05-24T12:39:28;102445.84;;;16.08;51.60
78671;BME280;68277;52.724;6.516;2023-05-24T12:42:00;102445.94;;;16.02;52.01
78671;BME280;68277;52.724;6.516;2023-05-24T12:44:32;102430.00;;;15.98;51.95
78671;BME280;68277;52.724;6.516;2023-05-24T12:46:58;102433.44;;;16.04;52.18
78671;BME280;68277;52.724;6.516;2023-05-24T12:49:24;102451.78;;;16.21;52.85
78671;BME280;68277;52.724;6.516;2023-05-24T12:51:51;102413.97;;;15.98;52.92
78671;BME280;68277;52.724;6.516;2023-05-24T12:54:18;102416.56;;;16.04;52.68
78671;BME280;68277;52.724;6.516;2023-05-24T12:56:44;102417.25;;;16.12;52.73
78671;BME280;68277;52.724;6.516;2023-05-24T12:59:13;102424.28;;;16.17;52.55
78671;BME280;68277;52.724;6.516;2023-05-24T13:01:39;102403.59;;;15.84;51.60
78671;BME280;68277;52.724;6.516;2023-05-24T13:04:05;102438.09;;;15.93;53.27
78671;BME280;68277;52.724;6.516;2023-05-24T13:06:30;102433.94;;;15.79;53.50
78671;BME280;68277;52.724;6.516;2023-05-24T13:08:56;102434.84;;;15.78;53.89
78671;BME280;68277;52.724;6.516;2023-05-24T13:11:21;102418.13;;;15.66;53.81
78671;BME280;68277;52.724;6.516;2023-05-24T13:13:49;102451.72;;;15.78;54.29
78671;BME280;68277;52.724;6.516;2023-05-24T13:16:15;102420.13;;;15.55;53.40
78671;BME280;68277;52.724;6.516;2023-05-24T13:18:40;102459.25;;;15.56;52.88
78671;BME280;68277;52.724;6.516;2023-05-24T13:21:06;102424.19;;;15.26;53.31